Iselin, New Jersey
Current Conditions -  °F | °C
As of 5:35 AM on Thursday 27 Nov 2014 (Local Time) from KLDJ Reporting Station
Overcast Overcast  
Wind Chill:   Ceiling: 5500
Heat Index:   Visibility: 10mi
Dew Point:   Wind: 7mph
Humidity: 85%   Direction: 290°WNW
Pressure: 29.97"   Gusts: NA
Location:  40.57°N, 74.32°W
Report Text: KLDJ 271035Z AUTO 29006KT 10SM OVC055 04/02 A2997 RMK AO2 T00420019
Loading
Personal Weather Stations






























Interactive Weather Map New forecast layout! Learn more

10-Day Weather Forecast

Advertisements
Track Severe Weather on mobile